sensor_id;sensor_type;location;lat;lon;timestamp;temperature;humidity
6054;DHT22;3055;50.886;14.814;2023-05-23T00:01:02;13.60;1.00
6054;DHT22;3055;50.886;14.814;2023-05-23T00:03:31;13.60;1.00
6054;DHT22;3055;50.886;14.814;2023-05-23T00:05:59;13.50;1.00
6054;DHT22;3055;50.886;14.814;2023-05-23T00:08:26;13.40;1.00
6054;DHT22;3055;50.886;14.814;2023-05-23T00:10:53;13.30;20.10
6054;DHT22;3055;50.886;14.814;2023-05-23T00:13:20;13.30;16.50
6054;DHT22;3055;50.886;14.814;2023-05-23T00:15:47;13.30;39.10
6054;DHT22;3055;50.886;14.814;2023-05-23T00:18:15;13.30;33.40
6054;DHT22;3055;50.886;14.814;2023-05-23T00:20:43;13.40;14.00
6054;DHT22;3055;50.886;14.814;2023-05-23T00:23:11;13.40;1.00
6054;DHT22;3055;50.886;14.814;2023-05-23T00:25:44;13.50;1.00
6054;DHT22;3055;50.886;14.814;2023-05-23T00:28:13;13.40;1.00
6054;DHT22;3055;50.886;14.814;2023-05-23T00:30:41;13.40;1.00
6054;DHT22;3055;50.886;14.814;2023-05-23T00:33:08;13.40;1.00
6054;DHT22;3055;50.886;14.814;2023-05-23T00:35:40;13.40;1.00
6054;DHT22;3055;50.886;14.814;2023-05-23T00:38:07;13.40;1.00
6054;DHT22;3055;50.886;14.814;2023-05-23T00:40:36;13.60;1.00
6054;DHT22;3055;50.886;14.814;2023-05-23T00:43:03;13.50;1.00
6054;DHT22;3055;50.886;14.814;2023-05-23T00:45:30;13.40;1.00
6054;DHT22;3055;50.886;14.814;2023-05-23T00:47:57;13.30;1.00
6054;DHT22;3055;50.886;14.814;2023-05-23T00:50:27;13.20;1.00
6054;DHT22;3055;50.886;14.814;2023-05-23T00:52:57;13.10;7.30
6054;DHT22;3055;50.886;14.814;2023-05-23T00:55:24;13.10;27.60
6054;DHT22;3055;50.886;14.814;2023-05-23T00:57:53;13.20;6.50
6054;DHT22;3055;50.886;14.814;2023-05-23T01:00:22;13.20;1.00
6054;DHT22;3055;50.886;14.814;2023-05-23T01:02:50;13.20;1.00
6054;DHT22;3055;50.886;14.814;2023-05-23T01:05:18;13.10;1.00
6054;DHT22;3055;50.886;14.814;2023-05-23T01:07:47;13.20;1.00
6054;DHT22;3055;50.886;14.814;2023-05-23T01:10:18;13.10;1.00
6054;DHT22;3055;50.886;14.814;2023-05-23T01:12:55;13.00;1.70
6054;DHT22;3055;50.886;14.814;2023-05-23T01:15:28;13.00;1.50
6054;DHT22;3055;50.886;14.814;2023-05-23T01:18:00;13.00;9.20
6054;DHT22;3055;50.886;14.814;2023-05-23T01:20:32;12.90;1.00
6054;DHT22;3055;50.886;14.814;2023-05-23T01:23:21;12.90;13.10
6054;DHT22;3055;50.886;14.814;2023-05-23T01:26:17;12.80;28.20
6054;DHT22;3055;50.886;14.814;2023-05-23T01:28:55;13.00;23.60
6054;DHT22;3055;50.886;14.814;2023-05-23T01:31:32;12.90;21.90
6054;DHT22;3055;50.886;14.814;2023-05-23T01:34:00;12.80;44.50
6054;DHT22;3055;50.886;14.814;2023-05-23T01:36:28;12.80;55.40
6054;DHT22;3055;50.886;14.814;2023-05-23T01:38:56;12.80;54.80
6054;DHT22;3055;50.886;14.814;2023-05-23T01:41:23;12.80;88.30
6054;DHT22;3055;50.886;14.814;2023-05-23T01:43:52;12.80;96.20
6054;DHT22;3055;50.886;14.814;2023-05-23T01:46:20;12.80;93.00
6054;DHT22;3055;50.886;14.814;2023-05-23T01:48:47;12.80;99.90
6054;DHT22;3055;50.886;14.814;2023-05-23T01:51:15;12.80;99.90
6054;DHT22;3055;50.886;14.814;2023-05-23T01:53:42;12.90;99.90
6054;DHT22;3055;50.886;14.814;2023-05-23T01:56:10;12.90;99.40
6054;DHT22;3055;50.886;14.814;2023-05-23T01:58:37;13.10;99.50
6054;DHT22;3055;50.886;14.814;2023-05-23T02:01:05;13.20;32.80
6054;DHT22;3055;50.886;14.814;2023-05-23T02:03:32;13.40;1.00
6054;DHT22;3055;50.886;14.814;2023-05-23T02:06:00;13.50;1.00
6054;DHT22;3055;50.886;14.814;2023-05-23T02:08:27;13.70;1.00
6054;DHT22;3055;50.886;14.814;2023-05-23T02:10:54;13.80;1.00
6054;DHT22;3055;50.886;14.814;2023-05-23T02:13:20;13.90;99.90
6054;DHT22;3055;50.886;14.814;2023-05-23T02:15:47;14.10;99.90
6054;DHT22;3055;50.886;14.814;2023-05-23T02:18:16;14.20;1.00
6054;DHT22;3055;50.886;14.814;2023-05-23T02:20:43;14.50;1.00
6054;DHT22;3055;50.886;14.814;2023-05-23T02:23:10;14.60;1.00
6054;DHT22;3055;50.886;14.814;2023-05-23T02:25:37;14.70;1.00
6054;DHT22;3055;50.886;14.814;2023-05-23T02:28:04;14.70;99.90
6054;DHT22;3055;50.886;14.814;2023-05-23T02:30:31;14.80;99.90
6054;DHT22;3055;50.886;14.814;2023-05-23T02:32:58;14.80;99.90
6054;DHT22;3055;50.886;14.814;2023-05-23T02:35:27;14.90;99.90
6054;DHT22;3055;50.886;14.814;2023-05-23T02:37:54;14.80;99.90
6054;DHT22;3055;50.886;14.814;2023-05-23T02:40:21;14.80;99.90
6054;DHT22;3055;50.886;14.814;2023-05-23T02:42:48;15.00;7.10
6054;DHT22;3055;50.886;14.814;2023-05-23T02:45:15;15.10;1.00
6054;DHT22;3055;50.886;14.814;2023-05-23T02:47:42;15.10;1.00
6054;DHT22;3055;50.886;14.814;2023-05-23T02:50:10;15.10;1.00
6054;DHT22;3055;50.886;14.814;2023-05-23T02:52:38;15.10;1.00
6054;DHT22;3055;50.886;14.814;2023-05-23T02:55:07;15.20;1.00
6054;DHT22;3055;50.886;14.814;2023-05-23T02:57:34;15.20;1.00
6054;DHT22;3055;50.886;14.814;2023-05-23T03:00:01;15.10;1.00
6054;DHT22;3055;50.886;14.814;2023-05-23T03:02:30;15.00;1.00
6054;DHT22;3055;50.886;14.814;2023-05-23T03:04:57;15.00;1.00
6054;DHT22;3055;50.886;14.814;2023-05-23T03:07:24;15.00;1.00
6054;DHT22;3055;50.886;14.814;2023-05-23T03:09:53;15.00;99.90
6054;DHT22;3055;50.886;14.814;2023-05-23T03:12:20;15.00;99.90
6054;DHT22;3055;50.886;14.814;2023-05-23T03:14:47;14.90;99.90
6054;DHT22;3055;50.886;14.814;2023-05-23T03:17:14;14.90;99.90
6054;DHT22;3055;50.886;14.814;2023-05-23T03:19:41;14.80;99.90
6054;DHT22;3055;50.886;14.814;2023-05-23T03:22:08;14.80;99.90
6054;DHT22;3055;50.886;14.814;2023-05-23T03:24:35;14.90;71.20
6054;DHT22;3055;50.886;14.814;2023-05-23T03:27:03;14.90;99.90
6054;DHT22;3055;50.886;14.814;2023-05-23T03:29:30;14.90;99.90
6054;DHT22;3055;50.886;14.814;2023-05-23T03:31:57;14.80;99.90
6054;DHT22;3055;50.886;14.814;2023-05-23T03:34:24;14.80;99.90
6054;DHT22;3055;50.886;14.814;2023-05-23T03:36:52;14.80;99.90
6054;DHT22;3055;50.886;14.814;2023-05-23T03:39:19;14.80;99.90
6054;DHT22;3055;50.886;14.814;2023-05-23T03:41:46;15.00;1.00
6054;DHT22;3055;50.886;14.814;2023-05-23T03:44:14;15.00;99.90
6054;DHT22;3055;50.886;14.814;2023-05-23T03:46:41;15.00;99.90
6054;DHT22;3055;50.886;14.814;2023-05-23T03:49:08;15.10;99.90
6054;DHT22;3055;50.886;14.814;2023-05-23T03:51:35;15.20;99.90
6054;DHT22;3055;50.886;14.814;2023-05-23T03:54:02;15.30;99.90
6054;DHT22;3055;50.886;14.814;2023-05-23T03:56:29;15.30;99.90
6054;DHT22;3055;50.886;14.814;2023-05-23T03:58:56;15.40;99.90
6054;DHT22;3055;50.886;14.814;2023-05-23T04:01:25;15.30;99.90
6054;DHT22;3055;50.886;14.814;2023-05-23T04:03:52;15.20;99.90
6054;DHT22;3055;50.886;14.814;2023-05-23T04:06:19;15.20;99.90
6054;DHT22;3055;50.886;14.814;2023-05-23T04:08:47;15.20;99.90
6054;DHT22;3055;50.886;14.814;2023-05-23T04:11:14;15.40;99.90
6054;DHT22;3055;50.886;14.814;2023-05-23T04:13:41;15.40;99.90
6054;DHT22;3055;50.886;14.814;2023-05-23T04:16:09;15.30;99.90
6054;DHT22;3055;50.886;14.814;2023-05-23T04:18:37;15.50;1.00
6054;DHT22;3055;50.886;14.814;2023-05-23T04:21:04;15.40;99.90
6054;DHT22;3055;50.886;14.814;2023-05-23T04:23:31;15.40;1.00
6054;DHT22;3055;50.886;14.814;2023-05-23T04:25:58;15.20;1.00
6054;DHT22;3055;50.886;14.814;2023-05-23T04:28:25;15.10;1.00
6054;DHT22;3055;50.886;14.814;2023-05-23T04:30:53;15.00;99.90
6054;DHT22;3055;50.886;14.814;2023-05-23T04:33:20;15.00;99.90
6054;DHT22;3055;50.886;14.814;2023-05-23T04:35:49;14.90;99.90
6054;DHT22;3055;50.886;14.814;2023-05-23T04:38:16;14.90;74.70
6054;DHT22;3055;50.886;14.814;2023-05-23T04:40:43;14.90;1.00
6054;DHT22;3055;50.886;14.814;2023-05-23T04:43:10;15.00;99.90
6054;DHT22;3055;50.886;14.814;2023-05-23T04:45:38;15.10;98.40
6054;DHT22;3055;50.886;14.814;2023-05-23T04:48:07;15.20;99.90
6054;DHT22;3055;50.886;14.814;2023-05-23T04:50:34;15.30;29.10
6054;DHT22;3055;50.886;14.814;2023-05-23T04:53:03;15.30;1.00
6054;DHT22;3055;50.886;14.814;2023-05-23T04:55:30;15.40;99.90
6054;DHT22;3055;50.886;14.814;2023-05-23T04:57:58;15.40;1.00
6054;DHT22;3055;50.886;14.814;2023-05-23T05:00:25;15.50;99.90
6054;DHT22;3055;50.886;14.814;2023-05-23T05:02:52;15.60;99.90
6054;DHT22;3055;50.886;14.814;2023-05-23T05:05:19;15.60;99.90
6054;DHT22;3055;50.886;14.814;2023-05-23T05:07:46;15.70;99.90
6054;DHT22;3055;50.886;14.814;2023-05-23T05:10:15;15.90;99.90
6054;DHT22;3055;50.886;14.814;2023-05-23T05:12:43;16.10;99.90
6054;DHT22;3055;50.886;14.814;2023-05-23T05:15:11;16.20;77.80
6054;DHT22;3055;50.886;14.814;2023-05-23T05:17:38;16.30;99.90
6054;DHT22;3055;50.886;14.814;2023-05-23T05:20:07;16.50;99.90
6054;DHT22;3055;50.886;14.814;2023-05-23T05:22:35;16.70;99.90
6054;DHT22;3055;50.886;14.814;2023-05-23T05:25:05;17.00;1.00
6054;DHT22;3055;50.886;14.814;2023-05-23T05:27:34;17.30;1.00
6054;DHT22;3055;50.886;14.814;2023-05-23T05:30:03;17.60;99.90
6054;DHT22;3055;50.886;14.814;2023-05-23T05:32:31;17.70;99.90
6054;DHT22;3055;50.886;14.814;2023-05-23T05:34:58;17.80;99.90
6054;DHT22;3055;50.886;14.814;2023-05-23T05:37:25;17.90;91.60
6054;DHT22;3055;50.886;14.814;2023-05-23T05:39:53;18.00;1.00
6054;DHT22;3055;50.886;14.814;2023-05-23T05:42:20;18.10;1.00
6054;DHT22;3055;50.886;14.814;2023-05-23T05:44:48;18.20;99.90
6054;DHT22;3055;50.886;14.814;2023-05-23T05:47:15;18.30;99.90
6054;DHT22;3055;50.886;14.814;2023-05-23T05:49:42;18.40;99.90
6054;DHT22;3055;50.886;14.814;2023-05-23T05:52:10;18.50;99.90
6054;DHT22;3055;50.886;14.814;2023-05-23T05:54:37;18.60;99.90
6054;DHT22;3055;50.886;14.814;2023-05-23T05:57:07;18.80;99.90
6054;DHT22;3055;50.886;14.814;2023-05-23T05:59:34;19.00;64.80
6054;DHT22;3055;50.886;14.814;2023-05-23T06:02:02;19.10;99.00
6054;DHT22;3055;50.886;14.814;2023-05-23T06:04:30;19.30;99.90
6054;DHT22;3055;50.886;14.814;2023-05-23T06:06:56;19.30;99.90
6054;DHT22;3055;50.886;14.814;2023-05-23T06:09:24;19.40;99.90
6054;DHT22;3055;50.886;14.814;2023-05-23T06:11:51;19.50;99.90
6054;DHT22;3055;50.886;14.814;2023-05-23T06:14:18;19.60;99.90
6054;DHT22;3055;50.886;14.814;2023-05-23T06:16:45;19.60;70.90
6054;DHT22;3055;50.886;14.814;2023-05-23T06:19:16;19.80;1.00
6054;DHT22;3055;50.886;14.814;2023-05-23T06:21:43;20.10;1.00
6054;DHT22;3055;50.886;14.814;2023-05-23T06:24:10;20.40;1.00
6054;DHT22;3055;50.886;14.814;2023-05-23T06:26:37;20.50;99.90
6054;DHT22;3055;50.886;14.814;2023-05-23T06:29:04;20.40;99.90
6054;DHT22;3055;50.886;14.814;2023-05-23T06:31:31;20.40;99.90
6054;DHT22;3055;50.886;14.814;2023-05-23T06:33:58;20.40;99.90
6054;DHT22;3055;50.886;14.814;2023-05-23T06:36:27;20.50;99.90
6054;DHT22;3055;50.886;14.814;2023-05-23T06:38:54;20.90;99.90
6054;DHT22;3055;50.886;14.814;2023-05-23T06:41:21;21.30;99.90
6054;DHT22;3055;50.886;14.814;2023-05-23T06:43:48;21.80;99.90
6054;DHT22;3055;50.886;14.814;2023-05-23T06:46:15;22.20;99.90
6054;DHT22;3055;50.886;14.814;2023-05-23T06:48:42;22.10;99.90
6054;DHT22;3055;50.886;14.814;2023-05-23T06:51:09;22.10;99.90
6054;DHT22;3055;50.886;14.814;2023-05-23T06:53:37;22.10;99.90
6054;DHT22;3055;50.886;14.814;2023-05-23T06:56:05;22.20;99.90
6054;DHT22;3055;50.886;14.814;2023-05-23T06:58:32;22.40;99.90
6054;DHT22;3055;50.886;14.814;2023-05-23T07:00:59;22.60;99.90
6054;DHT22;3055;50.886;14.814;2023-05-23T07:03:26;22.70;99.90
6054;DHT22;3055;50.886;14.814;2023-05-23T07:05:53;22.70;80.90
6054;DHT22;3055;50.886;14.814;2023-05-23T07:08:20;22.60;51.50
6054;DHT22;3055;50.886;14.814;2023-05-23T07:10:48;22.80;51.20
6054;DHT22;3055;50.886;14.814;2023-05-23T07:13:15;22.90;40.60
6054;DHT22;3055;50.886;14.814;2023-05-23T07:15:42;22.90;27.70
6054;DHT22;3055;50.886;14.814;2023-05-23T07:18:09;22.90;25.90
6054;DHT22;3055;50.886;14.814;2023-05-23T07:20:36;22.90;31.20
6054;DHT22;3055;50.886;14.814;2023-05-23T07:23:03;22.90;22.30
6054;DHT22;3055;50.886;14.814;2023-05-23T07:25:30;22.80;23.20
6054;DHT22;3055;50.886;14.814;2023-05-23T07:27:59;22.50;21.40
6054;DHT22;3055;50.886;14.814;2023-05-23T07:30:26;22.30;24.80
6054;DHT22;3055;50.886;14.814;2023-05-23T07:32:53;22.00;32.60
6054;DHT22;3055;50.886;14.814;2023-05-23T07:35:20;21.70;38.30
6054;DHT22;3055;50.886;14.814;2023-05-23T07:37:50;21.40;55.40
6054;DHT22;3055;50.886;14.814;2023-05-23T07:40:17;21.10;97.90
6054;DHT22;3055;50.886;14.814;2023-05-23T07:42:45;20.80;99.90
6054;DHT22;3055;50.886;14.814;2023-05-23T07:45:13;20.50;99.90
6054;DHT22;3055;50.886;14.814;2023-05-23T07:47:41;20.50;99.90
6054;DHT22;3055;50.886;14.814;2023-05-23T07:50:08;20.40;99.90
6054;DHT22;3055;50.886;14.814;2023-05-23T07:52:35;20.40;99.90
6054;DHT22;3055;50.886;14.814;2023-05-23T07:55:02;20.50;99.90
6054;DHT22;3055;50.886;14.814;2023-05-23T07:57:29;20.60;99.90
6054;DHT22;3055;50.886;14.814;2023-05-23T07:59:56;20.70;99.90
6054;DHT22;3055;50.886;14.814;2023-05-23T08:02:25;20.90;99.90
6054;DHT22;3055;50.886;14.814;2023-05-23T08:04:52;20.80;99.90
6054;DHT22;3055;50.886;14.814;2023-05-23T08:07:19;20.90;99.90
6054;DHT22;3055;50.886;14.814;2023-05-23T08:09:46;21.00;99.90
6054;DHT22;3055;50.886;14.814;2023-05-23T08:12:13;21.10;99.90
6054;DHT22;3055;50.886;14.814;2023-05-23T08:14:40;21.00;99.90
6054;DHT22;3055;50.886;14.814;2023-05-23T08:17:07;20.90;99.90
6054;DHT22;3055;50.886;14.814;2023-05-23T08:19:35;20.90;99.90
6054;DHT22;3055;50.886;14.814;2023-05-23T08:22:03;20.70;99.90
6054;DHT22;3055;50.886;14.814;2023-05-23T08:24:30;20.60;99.90
6054;DHT22;3055;50.886;14.814;2023-05-23T08:26:58;20.50;99.90
6054;DHT22;3055;50.886;14.814;2023-05-23T08:29:25;20.40;99.90
6054;DHT22;3055;50.886;14.814;2023-05-23T08:31:52;20.40;99.90
6054;DHT22;3055;50.886;14.814;2023-05-23T08:34:19;20.60;99.90
6054;DHT22;3055;50.886;14.814;2023-05-23T08:36:48;20.60;99.90
6054;DHT22;3055;50.886;14.814;2023-05-23T08:39:15;20.70;99.90
6054;DHT22;3055;50.886;14.814;2023-05-23T08:41:42;20.70;99.90
6054;DHT22;3055;50.886;14.814;2023-05-23T08:44:09;20.70;99.90
6054;DHT22;3055;50.886;14.814;2023-05-23T08:46:40;20.70;99.90
6054;DHT22;3055;50.886;14.814;2023-05-23T08:49:10;20.60;99.90
6054;DHT22;3055;50.886;14.814;2023-05-23T08:51:42;20.80;99.90
6054;DHT22;3055;50.886;14.814;2023-05-23T08:54:11;21.20;99.90
6054;DHT22;3055;50.886;14.814;2023-05-23T08:56:38;21.60;99.90
6054;DHT22;3055;50.886;14.814;2023-05-23T08:59:08;22.00;99.90
6054;DHT22;3055;50.886;14.814;2023-05-23T09:01:37;22.50;99.90
6054;DHT22;3055;50.886;14.814;2023-05-23T09:04:06;22.80;99.90
6054;DHT22;3055;50.886;14.814;2023-05-23T09:06:34;22.80;99.90
6054;DHT22;3055;50.886;14.814;2023-05-23T09:09:01;22.80;87.90
6054;DHT22;3055;50.886;14.814;2023-05-23T09:11:30;22.90;78.70
6054;DHT22;3055;50.886;14.814;2023-05-23T09:13:59;23.00;52.90
6054;DHT22;3055;50.886;14.814;2023-05-23T09:16:31;23.10;58.10
6054;DHT22;3055;50.886;14.814;2023-05-23T09:19:09;23.00;17.50
6054;DHT22;3055;50.886;14.814;2023-05-23T09:21:36;23.00;11.30
6054;DHT22;3055;50.886;14.814;2023-05-23T09:24:04;23.00;3.10
6054;DHT22;3055;50.886;14.814;2023-05-23T09:26:33;22.90;7.10
6054;DHT22;3055;50.886;14.814;2023-05-23T09:29:04;22.90;2.00
6054;DHT22;3055;50.886;14.814;2023-05-23T09:31:31;22.70;9.30
6054;DHT22;3055;50.886;14.814;2023-05-23T09:33:58;22.50;11.50
6054;DHT22;3055;50.886;14.814;2023-05-23T09:36:27;22.30;14.90
6054;DHT22;3055;50.886;14.814;2023-05-23T09:38:55;22.40;9.60
6054;DHT22;3055;50.886;14.814;2023-05-23T09:41:22;22.50;5.80
6054;DHT22;3055;50.886;14.814;2023-05-23T09:43:53;22.80;2.70
6054;DHT22;3055;50.886;14.814;2023-05-23T09:46:21;23.20;1.00
6054;DHT22;3055;50.886;14.814;2023-05-23T09:48:49;23.30;1.00
6054;DHT22;3055;50.886;14.814;2023-05-23T09:51:19;23.40;1.00
6054;DHT22;3055;50.886;14.814;2023-05-23T09:53:46;23.20;1.00
6054;DHT22;3055;50.886;14.814;2023-05-23T09:56:15;23.10;1.00
6054;DHT22;3055;50.886;14.814;2023-05-23T09:58:45;22.90;1.00
6054;DHT22;3055;50.886;14.814;2023-05-23T10:01:14;22.70;1.00
6054;DHT22;3055;50.886;14.814;2023-05-23T10:03:45;22.40;1.00
6054;DHT22;3055;50.886;14.814;2023-05-23T10:06:17;22.20;1.00
6054;DHT22;3055;50.886;14.814;2023-05-23T10:08:51;21.90;1.00
6054;DHT22;3055;50.886;14.814;2023-05-23T10:11:53;21.50;1.60
6054;DHT22;3055;50.886;14.814;2023-05-23T10:14:37;21.20;10.60
6054;DHT22;3055;50.886;14.814;2023-05-23T10:17:09;21.00;14.50
6054;DHT22;3055;50.886;14.814;2023-05-23T10:19:42;21.00;22.30
6054;DHT22;3055;50.886;14.814;2023-05-23T10:22:10;21.00;22.30
6054;DHT22;3055;50.886;14.814;2023-05-23T10:24:38;21.00;21.50
6054;DHT22;3055;50.886;14.814;2023-05-23T10:27:06;21.10;30.20
6054;DHT22;3055;50.886;14.814;2023-05-23T10:29:33;21.30;28.00
6054;DHT22;3055;50.886;14.814;2023-05-23T10:32:01;21.60;30.40
6054;DHT22;3055;50.886;14.814;2023-05-23T10:34:33;22.00;24.30
6054;DHT22;3055;50.886;14.814;2023-05-23T10:37:04;22.30;14.40
6054;DHT22;3055;50.886;14.814;2023-05-23T10:39:43;22.70;15.80
6054;DHT22;3055;50.886;14.814;2023-05-23T10:42:16;22.80;1.00
6054;DHT22;3055;50.886;14.814;2023-05-23T10:44:43;23.00;1.00
6054;DHT22;3055;50.886;14.814;2023-05-23T10:47:10;22.90;1.00
6054;DHT22;3055;50.886;14.814;2023-05-23T10:49:40;23.00;1.00
6054;DHT22;3055;50.886;14.814;2023-05-23T10:52:08;23.00;1.00
6054;DHT22;3055;50.886;14.814;2023-05-23T10:54:35;23.10;1.00
6054;DHT22;3055;50.886;14.814;2023-05-23T10:57:03;23.30;1.00
6054;DHT22;3055;50.886;14.814;2023-05-23T10:59:32;23.40;1.00
6054;DHT22;3055;50.886;14.814;2023-05-23T11:02:02;23.70;1.00
6054;DHT22;3055;50.886;14.814;2023-05-23T11:04:31;24.10;1.00
6054;DHT22;3055;50.886;14.814;2023-05-23T11:07:00;24.10;1.00
6054;DHT22;3055;50.886;14.814;2023-05-23T11:09:27;24.10;1.00
6054;DHT22;3055;50.886;14.814;2023-05-23T11:11:58;24.10;1.00
6054;DHT22;3055;50.886;14.814;2023-05-23T11:14:52;23.90;1.00
6054;DHT22;3055;50.886;14.814;2023-05-23T11:17:29;23.90;1.00
6054;DHT22;3055;50.886;14.814;2023-05-23T11:20:02;24.10;1.00
6054;DHT22;3055;50.886;14.814;2023-05-23T11:22:33;24.40;1.00
6054;DHT22;3055;50.886;14.814;2023-05-23T11:25:05;24.40;1.00
6054;DHT22;3055;50.886;14.814;2023-05-23T11:27:33;24.40;1.00
6054;DHT22;3055;50.886;14.814;2023-05-23T11:30:02;24.20;1.00
6054;DHT22;3055;50.886;14.814;2023-05-23T11:32:30;23.90;1.00
6054;DHT22;3055;50.886;14.814;2023-05-23T11:35:01;23.90;1.00
6054;DHT22;3055;50.886;14.814;2023-05-23T11:37:29;23.90;1.00
6054;DHT22;3055;50.886;14.814;2023-05-23T11:39:58;24.20;1.00
6054;DHT22;3055;50.886;14.814;2023-05-23T11:42:26;24.40;1.00
6054;DHT22;3055;50.886;14.814;2023-05-23T11:44:53;24.60;1.00
6054;DHT22;3055;50.886;14.814;2023-05-23T11:47:20;24.50;1.00
6054;DHT22;3055;50.886;14.814;2023-05-23T11:49:47;24.10;1.00
6054;DHT22;3055;50.886;14.814;2023-05-23T11:52:14;23.50;1.00
6054;DHT22;3055;50.886;14.814;2023-05-23T11:54:42;23.10;1.00
6054;DHT22;3055;50.886;14.814;2023-05-23T11:57:11;22.90;1.00
6054;DHT22;3055;50.886;14.814;2023-05-23T11:59:39;22.80;1.00
6054;DHT22;3055;50.886;14.814;2023-05-23T12:02:07;22.70;1.00
6054;DHT22;3055;50.886;14.814;2023-05-23T12:04:34;22.60;1.00
6054;DHT22;3055;50.886;14.814;2023-05-23T12:07:04;22.50;1.00
6054;DHT22;3055;50.886;14.814;2023-05-23T12:09:40;22.50;1.00
6054;DHT22;3055;50.886;14.814;2023-05-23T12:12:07;22.60;1.00
6054;DHT22;3055;50.886;14.814;2023-05-23T12:14:35;22.90;1.00
6054;DHT22;3055;50.886;14.814;2023-05-23T12:17:10;23.10;1.00
6054;DHT22;3055;50.886;14.814;2023-05-23T12:19:37;23.20;1.00
6054;DHT22;3055;50.886;14.814;2023-05-23T12:22:05;23.30;1.00
6054;DHT22;3055;50.886;14.814;2023-05-23T12:24:32;23.40;1.00
6054;DHT22;3055;50.886;14.814;2023-05-23T12:27:01;23.50;1.00
6054;DHT22;3055;50.886;14.814;2023-05-23T12:29:29;23.40;1.00
6054;DHT22;3055;50.886;14.814;2023-05-23T12:31:59;23.40;1.00
6054;DHT22;3055;50.886;14.814;2023-05-23T12:34:27;23.40;1.00
6054;DHT22;3055;50.886;14.814;2023-05-23T12:36:54;23.50;1.00
6054;DHT22;3055;50.886;14.814;2023-05-23T12:39:23;23.50;1.00
6054;DHT22;3055;50.886;14.814;2023-05-23T12:41:52;23.60;1.00
6054;DHT22;3055;50.886;14.814;2023-05-23T12:44:21;23.60;1.00
6054;DHT22;3055;50.886;14.814;2023-05-23T12:46:48;23.60;1.00
6054;DHT22;3055;50.886;14.814;2023-05-23T12:49:17;23.70;1.00
6054;DHT22;3055;50.886;14.814;2023-05-23T12:51:44;23.80;1.00
6054;DHT22;3055;50.886;14.814;2023-05-23T12:54:11;24.20;1.00
6054;DHT22;3055;50.886;14.814;2023-05-23T12:56:38;24.60;1.00
6054;DHT22;3055;50.886;14.814;2023-05-23T12:59:05;24.70;1.00
6054;DHT22;3055;50.886;14.814;2023-05-23T13:01:33;24.60;1.00
6054;DHT22;3055;50.886;14.814;2023-05-23T13:04:01;24.30;1.00
6054;DHT22;3055;50.886;14.814;2023-05-23T13:06:29;24.10;1.00
6054;DHT22;3055;50.886;14.814;2023-05-23T13:08:57;24.30;1.00
6054;DHT22;3055;50.886;14.814;2023-05-23T13:11:25;24.20;1.00
6054;DHT22;3055;50.886;14.814;2023-05-23T13:13:52;24.40;1.00
6054;DHT22;3055;50.886;14.814;2023-05-23T13:16:19;24.10;1.00
6054;DHT22;3055;50.886;14.814;2023-05-23T13:18:46;23.80;1.00
6054;DHT22;3055;50.886;14.814;2023-05-23T13:21:13;23.90;1.00
6054;DHT22;3055;50.886;14.814;2023-05-23T13:23:41;24.20;1.00
6054;DHT22;3055;50.886;14.814;2023-05-23T13:26:08;24.30;1.00
6054;DHT22;3055;50.886;14.814;2023-05-23T13:28:35;24.20;1.00
6054;DHT22;3055;50.886;14.814;2023-05-23T13:31:02;24.50;1.00
6054;DHT22;3055;50.886;14.814;2023-05-23T13:33:29;24.70;1.00
6054;DHT22;3055;50.886;14.814;2023-05-23T13:35:56;24.80;1.00
6054;DHT22;3055;50.886;14.814;2023-05-23T13:38:23;24.80;1.00
6054;DHT22;3055;50.886;14.814;2023-05-23T13:40:53;24.60;1.00
6054;DHT22;3055;50.886;14.814;2023-05-23T13:43:20;24.60;1.00
6054;DHT22;3055;50.886;14.814;2023-05-23T13:45:47;24.50;1.00
6054;DHT22;3055;50.886;14.814;2023-05-23T13:48:14;24.10;1.00
6054;DHT22;3055;50.886;14.814;2023-05-23T13:50:42;23.90;1.00
6054;DHT22;3055;50.886;14.814;2023-05-23T13:53:09;24.10;1.00
6054;DHT22;3055;50.886;14.814;2023-05-23T13:55:40;24.20;1.00
6054;DHT22;3055;50.886;14.814;2023-05-23T13:58:08;24.10;1.00
6054;DHT22;3055;50.886;14.814;2023-05-23T14:00:35;24.30;1.00
6054;DHT22;3055;50.886;14.814;2023-05-23T14:03:02;24.60;1.00
6054;DHT22;3055;50.886;14.814;2023-05-23T14:05:29;24.70;1.00
6054;DHT22;3055;50.886;14.814;2023-05-23T14:07:56;24.90;1.00
6054;DHT22;3055;50.886;14.814;2023-05-23T14:10:23;25.10;1.00
6054;DHT22;3055;50.886;14.814;2023-05-23T14:12:50;25.30;1.00
6054;DHT22;3055;50.886;14.814;2023-05-23T14:15:19;25.10;1.00
6054;DHT22;3055;50.886;14.814;2023-05-23T14:17:46;25.40;1.00
6054;DHT22;3055;50.886;14.814;2023-05-23T14:20:13;25.30;1.00
6054;DHT22;3055;50.886;14.814;2023-05-23T14:22:40;25.30;1.00
6054;DHT22;3055;50.886;14.814;2023-05-23T14:25:08;25.70;1.00
6054;DHT22;3055;50.886;14.814;2023-05-23T14:27:35;25.90;1.00
6054;DHT22;3055;50.886;14.814;2023-05-23T14:30:03;26.00;1.00
6054;DHT22;3055;50.886;14.814;2023-05-23T14:32:31;26.20;1.00
6054;DHT22;3055;50.886;14.814;2023-05-23T14:35:03;26.30;1.00
6054;DHT22;3055;50.886;14.814;2023-05-23T14:37:31;25.80;1.00
6054;DHT22;3055;50.886;14.814;2023-05-23T14:39:58;25.00;1.00
6054;DHT22;3055;50.886;14.814;2023-05-23T14:42:25;24.70;1.00
6054;DHT22;3055;50.886;14.814;2023-05-23T14:44:52;24.50;1.00
6054;DHT22;3055;50.886;14.814;2023-05-23T14:47:19;24.10;1.00
6054;DHT22;3055;50.886;14.814;2023-05-23T14:49:49;23.70;1.00
6054;DHT22;3055;50.886;14.814;2023-05-23T14:52:16;23.40;1.00
6054;DHT22;3055;50.886;14.814;2023-05-23T14:54:43;23.20;1.00
6054;DHT22;3055;50.886;14.814;2023-05-23T14:57:10;23.00;1.00
6054;DHT22;3055;50.886;14.814;2023-05-23T14:59:37;23.20;1.00
6054;DHT22;3055;50.886;14.814;2023-05-23T15:02:05;23.20;1.00
6054;DHT22;3055;50.886;14.814;2023-05-23T15:04:32;22.90;1.00
6054;DHT22;3055;50.886;14.814;2023-05-23T15:07:01;22.60;1.00
6054;DHT22;3055;50.886;14.814;2023-05-23T15:09:28;22.30;1.00
6054;DHT22;3055;50.886;14.814;2023-05-23T15:11:55;22.00;1.00
6054;DHT22;3055;50.886;14.814;2023-05-23T15:14:22;21.90;1.00
6054;DHT22;3055;50.886;14.814;2023-05-23T15:16:54;21.60;1.00
6054;DHT22;3055;50.886;14.814;2023-05-23T15:19:21;21.30;1.00
6054;DHT22;3055;50.886;14.814;2023-05-23T15:21:48;21.20;1.00
6054;DHT22;3055;50.886;14.814;2023-05-23T15:24:17;21.10;1.00
6054;DHT22;3055;50.886;14.814;2023-05-23T15:26:44;21.00;1.00
6054;DHT22;3055;50.886;14.814;2023-05-23T15:29:11;21.00;1.00
6054;DHT22;3055;50.886;14.814;2023-05-23T15:31:40;20.70;1.00
6054;DHT22;3055;50.886;14.814;2023-05-23T15:34:07;20.50;1.00
6054;DHT22;3055;50.886;14.814;2023-05-23T15:36:34;20.40;1.00
6054;DHT22;3055;50.886;14.814;2023-05-23T15:39:01;20.40;1.00
6054;DHT22;3055;50.886;14.814;2023-05-23T15:41:30;20.40;1.00
6054;DHT22;3055;50.886;14.814;2023-05-23T15:43:57;20.50;1.00
6054;DHT22;3055;50.886;14.814;2023-05-23T15:46:24;20.50;1.00
6054;DHT22;3055;50.886;14.814;2023-05-23T15:48:51;20.60;1.00
6054;DHT22;3055;50.886;14.814;2023-05-23T15:51:18;20.50;1.00
6054;DHT22;3055;50.886;14.814;2023-05-23T15:53:45;20.60;1.00
6054;DHT22;3055;50.886;14.814;2023-05-23T15:56:12;20.60;1.00
6054;DHT22;3055;50.886;14.814;2023-05-23T15:58:41;20.90;1.00
6054;DHT22;3055;50.886;14.814;2023-05-23T16:01:08;21.30;1.00